createdAt,value
2022-12-05T00:03:10.877Z,47.35
2022-12-05T00:09:42.876Z,42.75
2022-12-05T00:13:00.449Z,41.75
2022-12-05T00:16:20.699Z,41.30
2022-12-05T00:19:37.068Z,45.28
2022-12-05T00:26:12.064Z,44.03
2022-12-05T00:29:29.804Z,42.63
2022-12-05T00:32:45.862Z,44.55
2022-12-05T00:36:01.985Z,43.30
2022-12-05T00:39:20.557Z,40.20
2022-12-05T00:42:36.785Z,41.48
2022-12-05T00:45:53.006Z,40.83
2022-12-05T00:49:12.440Z,37.93
2022-12-05T00:52:28.520Z,43.38
2022-12-05T00:55:47.807Z,36.98
2022-12-05T01:02:20.773Z,37.18
2022-12-05T01:10:30.408Z,31.40
2022-12-05T01:13:47.007Z,31.40
2022-12-05T01:17:04.584Z,31.65
2022-12-05T01:20:21.634Z,30.10
2022-12-05T01:26:53.901Z,31.35
2022-12-05T01:30:11.958Z,33.48
2022-12-05T01:33:28.091Z,33.10
2022-12-05T01:36:44.631Z,34.00
2022-12-05T01:40:01.096Z,33.38
2022-12-05T01:43:24.607Z,33.03
2022-12-05T01:46:44.730Z,31.40
2022-12-05T01:50:01.375Z,34.28
2022-12-05T01:53:18.071Z,33.33
2022-12-05T01:56:34.380Z,35.48
2022-12-05T01:59:56.296Z,33.73
2022-12-05T02:03:18.785Z,37.55
2022-12-05T02:09:50.189Z,30.98
2022-12-05T02:13:11.602Z,31.95
2022-12-05T02:16:35.574Z,37.13
2022-12-05T02:20:30.924Z,34.35
2022-12-05T02:27:16.407Z,33.00
2022-12-05T02:30:36.563Z,35.73
2022-12-05T02:33:56.659Z,38.70
2022-12-05T02:40:35.456Z,36.15
2022-12-05T02:43:58.328Z,33.98
2022-12-05T02:47:18.149Z,36.13
2022-12-05T02:50:38.074Z,34.13
2022-12-05T02:57:11.702Z,34.58
2022-12-05T03:00:29.246Z,32.23
2022-12-05T03:03:45.834Z,33.85
2022-12-05T03:07:06.784Z,33.28
2022-12-05T03:10:27.092Z,32.20
2022-12-05T03:13:48.759Z,31.80
2022-12-05T03:17:09.548Z,36.55
2022-12-05T03:20:31.254Z,30.70
2022-12-05T03:23:51.516Z,31.03
2022-12-05T03:27:13.388Z,31.15
2022-12-05T03:30:31.825Z,32.58
2022-12-05T03:33:51.897Z,33.03
2022-12-05T03:40:32.952Z,35.25
2022-12-05T03:43:55.782Z,34.15
2022-12-05T03:47:16.453Z,35.00
2022-12-05T03:50:35.535Z,31.30
2022-12-05T03:57:11.666Z,30.78
2022-12-05T04:00:29.485Z,30.83
2022-12-05T04:03:52.600Z,31.18
2022-12-05T04:07:12.857Z,32.43
2022-12-05T04:10:36.134Z,32.63
2022-12-05T04:13:56.434Z,30.43
2022-12-05T04:17:17.774Z,29.95
2022-12-05T04:20:52.029Z,30.83
2022-12-05T04:24:23.237Z,30.35
2022-12-05T04:27:44.615Z,30.98
2022-12-05T04:31:06.766Z,29.88
2022-12-05T04:34:26.900Z,32.45
2022-12-05T04:41:03.989Z,32.93
2022-12-05T04:44:23.501Z,31.45
2022-12-05T04:51:00.832Z,31.68
2022-12-05T04:57:36.665Z,33.68
2022-12-05T05:00:58.969Z,32.95
2022-12-05T05:04:21.563Z,34.03
2022-12-05T05:07:37.882Z,33.65
2022-12-05T05:11:00.706Z,36.90
2022-12-05T05:14:16.750Z,36.08
2022-12-05T05:17:32.926Z,35.73
2022-12-05T05:20:48.987Z,37.55
2022-12-05T05:24:06.699Z,44.43
2022-12-05T05:27:22.775Z,56.18
2022-12-05T05:30:38.914Z,40.30
2022-12-05T05:33:58.175Z,40.88
2022-12-05T05:37:14.295Z,43.85
2022-12-05T05:40:30.388Z,42.35
2022-12-05T05:43:48.976Z,45.58
2022-12-05T05:47:05.146Z,42.33
2022-12-05T05:50:22.222Z,41.88
2022-12-05T05:53:38.573Z,43.78
2022-12-05T05:56:54.869Z,41.98
2022-12-05T06:00:14.017Z,42.30
2022-12-05T06:03:30.174Z,48.00
2022-12-05T06:06:47.199Z,45.98
2022-12-05T06:10:03.308Z,43.45
2022-12-05T06:13:19.436Z,45.63
2022-12-05T06:16:36.752Z,45.60
2022-12-05T06:19:53.149Z,52.38
2022-12-05T06:26:27.693Z,54.10
2022-12-05T06:29:45.770Z,48.83
2022-12-05T06:33:03.070Z,47.08
2022-12-05T06:36:22.468Z,46.10
2022-12-05T06:42:54.280Z,49.55
2022-12-05T06:46:14.624Z,54.68
2022-12-05T06:49:37.604Z,45.73
2022-12-05T06:56:10.561Z,47.38
2022-12-05T07:02:42.164Z,47.68
2022-12-05T07:05:59.264Z,49.68
2022-12-05T07:12:32.499Z,47.75
2022-12-05T07:15:48.872Z,44.98
2022-12-05T07:19:05.517Z,44.95
2022-12-05T07:22:25.202Z,44.40
2022-12-05T07:26:51.405Z,46.38
2022-12-05T07:30:10.107Z,44.83
2022-12-05T07:33:26.234Z,47.18
2022-12-05T07:36:42.376Z,47.38
2022-12-05T07:43:14.518Z,45.90
2022-12-05T07:46:32.375Z,49.28
2022-12-05T07:49:48.426Z,50.05
2022-12-05T07:56:23.655Z,48.65
2022-12-05T07:59:40.008Z,49.28
2022-12-05T08:02:56.379Z,47.25
2022-12-05T08:06:15.328Z,48.33
2022-12-05T08:12:47.563Z,48.88
2022-12-05T08:16:07.782Z,49.70
2022-12-05T08:19:24.130Z,51.35
2022-12-05T08:22:40.416Z,49.18
2022-12-05T08:29:16.194Z,51.18
2022-12-05T08:32:32.644Z,49.78
2022-12-05T08:35:49.135Z,44.55
2022-12-05T08:39:10.420Z,53.90
2022-12-05T08:42:26.445Z,48.95
2022-12-05T08:45:42.867Z,48.25
2022-12-05T08:49:04.531Z,50.80
2022-12-05T08:52:22.801Z,54.28
2022-12-05T08:55:42.001Z,50.95
2022-12-05T08:59:04.743Z,49.25
2022-12-05T09:02:17.717Z,47.73
2022-12-05T09:05:34.399Z,42.88
2022-12-05T09:12:06.500Z,46.95
2022-12-05T09:15:23.548Z,43.05
2022-12-05T09:18:39.835Z,42.90
2022-12-05T09:21:56.009Z,45.60
2022-12-05T09:25:14.400Z,42.98
2022-12-05T09:28:30.784Z,40.55
2022-12-05T09:31:48.280Z,43.68
2022-12-05T09:35:05.150Z,42.93
2022-12-05T09:38:21.440Z,44.73
2022-12-05T09:42:11.677Z,44.08
2022-12-05T09:45:34.479Z,38.03
2022-12-05T09:48:50.921Z,48.68
2022-12-05T09:52:08.402Z,42.95
2022-12-05T09:55:27.263Z,40.28
2022-12-05T09:58:53.211Z,76.78
2022-12-05T10:02:29.439Z,62.30
2022-12-05T10:05:55.364Z,47.05
2022-12-05T10:13:00.367Z,41.03
2022-12-05T10:16:22.874Z,42.48
2022-12-05T10:19:43.933Z,46.85
2022-12-05T10:23:05.114Z,45.60
2022-12-05T10:26:24.273Z,45.45
2022-12-05T10:29:46.017Z,42.28
2022-12-05T10:33:09.731Z,38.10
2022-12-05T10:36:26.330Z,39.20
2022-12-05T10:42:59.194Z,43.68
2022-12-05T10:46:24.823Z,44.60
2022-12-05T10:49:54.735Z,122.83
2022-12-05T10:53:20.622Z,63.25
2022-12-05T10:56:53.786Z,40.83
2022-12-05T11:00:22.007Z,40.00
2022-12-05T11:03:43.114Z,40.20
2022-12-05T11:07:05.683Z,36.70
2022-12-05T11:10:33.708Z,34.08
2022-12-05T11:14:02.383Z,36.28
2022-12-05T11:17:29.464Z,35.65
2022-12-05T11:20:50.806Z,34.50
2022-12-05T11:27:38.943Z,33.30
2022-12-05T11:31:06.637Z,34.30
2022-12-05T11:34:37.969Z,38.90
2022-12-05T11:37:58.981Z,45.48
2022-12-05T11:41:33.262Z,38.65
2022-12-05T11:45:06.972Z,34.43
2022-12-05T11:48:54.645Z,36.15
2022-12-05T11:55:33.285Z,32.90
2022-12-05T11:59:25.648Z,35.25
2022-12-05T12:03:14.077Z,33.23
2022-12-05T12:06:42.332Z,32.38
2022-12-05T12:13:27.782Z,34.88
2022-12-05T12:16:54.976Z,33.63
2022-12-05T12:20:45.583Z,32.23
2022-12-05T12:24:41.711Z,29.63
2022-12-05T12:28:13.341Z,30.85
2022-12-05T12:31:58.902Z,33.68
2022-12-05T12:35:37.909Z,30.33
2022-12-05T12:39:51.069Z,27.97
2022-12-05T12:43:30.906Z,29.88
2022-12-05T12:46:43.906Z,32.20
2022-12-05T12:50:13.153Z,30.63
2022-12-05T12:53:57.994Z,35.20
2022-12-05T12:57:24.026Z,28.45
2022-12-05T13:00:51.176Z,32.23
2022-12-05T13:04:15.552Z,34.88
2022-12-05T13:07:38.613Z,38.15
2022-12-05T13:10:57.814Z,38.60
2022-12-05T13:14:20.170Z,29.87
2022-12-05T13:17:38.537Z,27.93
2022-12-05T13:20:58.639Z,31.53
2022-12-05T13:24:17.895Z,25.88
2022-12-05T13:28:04.570Z,24.75
2022-12-05T13:31:21.972Z,26.40
2022-12-05T13:34:53.823Z,30.35
2022-12-05T13:38:32.585Z,27.35
2022-12-05T13:42:12.493Z,26.10
2022-12-05T13:48:46.334Z,30.03
2022-12-05T13:52:02.915Z,28.10
2022-12-05T13:58:59.617Z,27.48
2022-12-05T14:02:52.276Z,25.70
2022-12-05T14:06:09.358Z,24.63
2022-12-05T14:15:10.052Z,23.83
2022-12-05T14:18:32.166Z,25.63
2022-12-05T14:21:56.330Z,25.73
2022-12-05T14:28:55.063Z,28.53
2022-12-05T14:32:28.100Z,29.00
2022-12-05T14:35:53.904Z,24.03
2022-12-05T14:39:31.017Z,28.85
2022-12-05T14:46:11.107Z,26.83
2022-12-05T14:50:10.401Z,27.93
2022-12-05T14:53:48.220Z,26.75
2022-12-05T14:57:17.165Z,28.05
2022-12-05T15:00:40.002Z,26.75
2022-12-05T15:04:35.533Z,28.38
2022-12-05T15:07:57.061Z,30.75
2022-12-05T15:14:33.933Z,30.68
2022-12-05T15:18:09.460Z,29.38
2022-12-05T15:21:34.734Z,31.83
2022-12-05T15:24:53.879Z,28.00
2022-12-05T15:31:29.288Z,29.53
2022-12-05T15:35:02.192Z,30.03
2022-12-05T15:38:30.699Z,27.30
2022-12-05T15:45:22.813Z,30.50
2022-12-05T15:48:43.611Z,38.50
2022-12-05T15:55:03.915Z,29.48
2022-12-05T15:58:26.245Z,29.00
2022-12-05T16:02:01.374Z,31.68
2022-12-05T16:05:31.352Z,32.08
2022-12-05T16:08:54.302Z,32.13
2022-12-05T16:12:36.542Z,34.40
2022-12-05T16:15:58.983Z,69.40
2022-12-05T16:19:23.928Z,39.70
2022-12-05T16:22:40.559Z,45.63
2022-12-05T16:25:57.839Z,48.30
2022-12-05T16:29:17.332Z,55.33
2022-12-05T16:35:53.036Z,58.93
2022-12-05T16:39:20.832Z,60.30
2022-12-05T16:42:40.729Z,65.15
2022-12-05T16:45:59.387Z,63.93
2022-12-05T16:49:45.814Z,60.47
2022-12-05T16:52:58.554Z,69.38
2022-12-05T16:56:20.792Z,71.30
2022-12-05T16:59:47.473Z,71.28
2022-12-05T17:03:32.294Z,68.25
2022-12-05T17:06:26.412Z,131.33
2022-12-05T17:09:43.287Z,84.23
2022-12-05T17:13:04.021Z,79.28
2022-12-05T17:16:21.405Z,70.38
2022-12-05T17:19:42.006Z,66.90
2022-12-05T17:22:59.961Z,74.35
2022-12-05T17:26:23.184Z,68.38
2022-12-05T17:29:40.459Z,71.73
2022-12-05T17:32:57.070Z,74.75
2022-12-05T17:36:17.953Z,70.40
2022-12-05T17:39:35.800Z,75.10
2022-12-05T17:42:54.536Z,72.33
2022-12-05T17:46:11.762Z,72.75
2022-12-05T17:49:28.236Z,77.60
2022-12-05T17:52:47.200Z,70.15
2022-12-05T17:56:03.915Z,70.93
2022-12-05T17:59:20.325Z,71.30
2022-12-05T18:05:53.711Z,69.28
2022-12-05T18:09:30.768Z,72.75
2022-12-05T18:12:48.084Z,84.50
2022-12-05T18:16:08.687Z,81.45
2022-12-05T18:19:26.088Z,75.93
2022-12-05T18:22:43.859Z,74.58
2022-12-05T18:26:09.537Z,74.43
2022-12-05T18:29:31.292Z,72.25
2022-12-05T18:32:47.805Z,75.18
2022-12-05T18:36:04.240Z,70.80
2022-12-05T18:39:22.819Z,76.70
2022-12-05T18:42:43.076Z,70.90
2022-12-05T18:46:08.074Z,67.80
2022-12-05T18:49:25.103Z,72.93
2022-12-05T18:52:42.736Z,76.75
2022-12-05T18:56:21.738Z,69.60
2022-12-05T18:59:26.545Z,74.60
2022-12-05T19:02:45.421Z,74.43
2022-12-05T19:06:02.038Z,72.28
2022-12-05T19:09:22.606Z,70.95
2022-12-05T19:12:39.711Z,73.30
2022-12-05T19:15:55.984Z,73.08
2022-12-05T19:19:16.258Z,74.33
2022-12-05T19:22:32.657Z,78.75
2022-12-05T19:25:48.886Z,79.50
2022-12-05T19:29:06.579Z,76.75
2022-12-05T19:32:27.181Z,77.43
2022-12-05T19:35:45.426Z,76.25
2022-12-05T19:39:05.298Z,80.78
2022-12-05T19:42:21.542Z,83.48
2022-12-05T19:45:37.841Z,78.78
2022-12-05T19:48:55.384Z,77.48
2022-12-05T19:52:12.306Z,79.88
2022-12-05T19:55:28.736Z,86.28
2022-12-05T19:58:46.245Z,79.45
2022-12-05T20:02:03.495Z,78.50
2022-12-05T20:05:33.035Z,79.75
2022-12-05T20:08:52.578Z,77.10
2022-12-05T20:12:08.907Z,76.38
2022-12-05T20:15:25.825Z,78.70
2022-12-05T20:18:43.924Z,81.18
2022-12-05T20:22:00.280Z,81.58
2022-12-05T20:25:17.652Z,77.23
2022-12-05T20:28:34.947Z,79.05
2022-12-05T20:31:52.996Z,75.63
2022-12-05T20:35:09.586Z,76.70
2022-12-05T20:38:25.851Z,75.58
2022-12-05T20:41:42.951Z,79.88
2022-12-05T20:45:01.138Z,79.28
2022-12-05T20:48:18.268Z,78.50
2022-12-05T20:51:37.056Z,80.83
2022-12-05T20:54:53.504Z,81.40
2022-12-05T20:58:09.595Z,84.28
2022-12-05T21:01:29.994Z,83.88
2022-12-05T21:04:48.465Z,86.80
2022-12-05T21:08:06.012Z,90.48
2022-12-05T21:11:31.696Z,85.13
2022-12-05T21:14:53.452Z,89.38
2022-12-05T21:18:09.865Z,95.65
2022-12-05T21:21:28.619Z,89.38
2022-12-05T21:24:44.395Z,86.53
2022-12-05T21:28:00.990Z,87.43
2022-12-05T21:31:22.012Z,86.88
2022-12-05T21:34:38.302Z,86.88
2022-12-05T21:37:55.747Z,86.95
2022-12-05T21:41:12.802Z,89.70
2022-12-05T21:44:28.994Z,93.42
2022-12-05T21:47:45.536Z,90.85
2022-12-05T21:51:03.211Z,90.53
2022-12-05T21:54:22.740Z,96.13
2022-12-05T22:00:56.055Z,88.58
2022-12-05T22:04:12.386Z,89.65
2022-12-05T22:07:28.623Z,91.63
2022-12-05T22:10:45.445Z,90.15
2022-12-05T22:14:01.943Z,92.50
2022-12-05T22:17:18.018Z,85.13
2022-12-05T22:20:35.489Z,93.83
2022-12-05T22:23:52.538Z,90.25
2022-12-05T22:27:09.008Z,89.73
2022-12-05T22:30:25.519Z,97.58
2022-12-05T22:33:42.379Z,88.48
2022-12-05T22:36:59.395Z,89.43
2022-12-05T22:40:18.086Z,88.30
2022-12-05T22:43:36.812Z,85.33
2022-12-05T22:46:53.694Z,85.40
2022-12-05T22:50:10.393Z,89.78
2022-12-05T22:53:29.416Z,93.35
2022-12-05T22:56:47.219Z,85.40
2022-12-05T23:00:03.988Z,83.80
2022-12-05T23:03:20.763Z,84.88
2022-12-05T23:06:39.441Z,82.40
2022-12-05T23:09:55.771Z,86.37
2022-12-05T23:13:12.315Z,83.23
2022-12-05T23:16:31.808Z,87.35
2022-12-05T23:19:49.585Z,83.35
2022-12-05T23:23:06.057Z,80.28
2022-12-05T23:26:23.954Z,78.80
2022-12-05T23:29:40.121Z,80.98
2022-12-05T23:32:56.428Z,85.95
2022-12-05T23:36:15.102Z,89.85
2022-12-05T23:39:31.933Z,90.33
2022-12-05T23:42:48.396Z,88.93
2022-12-05T23:46:05.379Z,81.15
2022-12-05T23:49:21.599Z,99.53
2022-12-05T23:52:38.543Z,94.83
2022-12-05T23:55:55.194Z,88.88
2022-12-05T23:59:13.194Z,89.90
